Luray, Missouri
Current Conditions -  °F | °C
As of 2:55 PM on Sunday 23 Nov 2014 (Local Time) from KEOK Reporting Station
Haze Haze  
Wind Chill: 54°   Ceiling: 500
Heat Index: 54°   Visibility: 2.5mi
Dew Point: 54°   Wind: 7mph
Humidity: 100%   Direction: 180°S
Pressure: 29.35"   Gusts: NA
Location:  40.45°N, 91.88°W
Report Text: KEOK 232055Z AUTO 18006KT 2 1/2SM BR OVC005 12/12 A2935 RMK AO2 P0004
Loading
Personal Weather Stations






























Interactive Weather Map New forecast layout! Learn more

10-Day Weather Forecast

Advertisements
Track Severe Weather on mobile